Strona główna
METAR-TAF:

METAR-TAF

Lotnisko :

Port lotniczy Parnawa

Parnawa, Estonia

Szerokość geograficzna: 58-25-09N, Długość geograficzna: 024-28-22E, wysokość: 14 m

Aktualna obserwacja pogody

Raport powstał 38 minut temu, godzina 10:50 UTC
Wiatr 9 kt od zachodnio-południowy zachód
Temperatura 8°C
Wilgotność 81%
Ciśnienie 1036 hPa
Widzialność 10 km lub więcej
Przerywane chmury na wysokości 1800 ft
Zachmurzenie całkowite na wysokości 2200 ft

METAR: EEPU 171050Z 24009KT 9999 BKN018 OVC022 08/05 Q1036

czas: 13:28 (11:28 UTC)


TAF: brakujący

Obserwacja i prognoza pogody dla ponad 4000 lotnisk (raport METAR i TAF).

Dostępne stacje oznaczono żółtymi i czerwonymi punktami na mapie.

Najedź kursorem aby zobaczyć nazwę stacji.

Kliknij aby zobaczyć obserwacje i prognozy pogody.

Aby zmienić mapę: kliknij na zielony przycisk z czarnym krzyżykiem, aby powiększyć; na zielony przycisk z myślnikiem, aby pomniejszyć; na zielone strzałki, aby przejść do map sąsiednich.


METAR-TAF: